Skip Navigation LinksHome page > Weather > Current weather Skip Navigation Links

Current Weather

Sarh, Chad

For information only: do not use for flight planning or navigation.
Latest weather
Observation time Tuesday, May 26, 2015 2:00 PM WAT
Local time Tuesday, May 26, 2015 4:26 PM WAT
Flight conditions Visual Meteorological Conditions
Winds
Wind direction West (280°)
Wind speed 5 mph
Visibility 6.2 mi.
Sky condition
Ceiling unlimited
Cloud layer few clouds 4,000 ft.
Temperature 97°F
Dewpoint 66°F
Altimeter 29.83 in.Hg
Derived measurements
Relative humidity 37%
Heat index 97°F
Density altitude 3150 ft.
METAR FTTA 261300Z 28004KT 9999 FEW040 36/19 Q1010

Settings

Location code

InnerDrive.Weather 4.0.5567.0 Release CLR 4.0.30319.34014
Copyright ©2015 Inner Drive Technology. All rights reserved. Portions Copyright ©1986-2015 David Braverman.

Find weather

Site navigation


Skip Navigation Links

Place info

Page info

PayPal - The safer, easier way to pay online!

Return home.

Copyright ©2015 Inner Drive Technology. Purveyors of fine, hand-crafted computer software. Page printed 2015-05-26T15:26:35 UTC.